sensor_id;sensor_type;location;lat;lon;timestamp;pressure;altitude;pressure_sealevel;temperature;humidity
141;BME280;65;48.778;9.160;2023-04-04T00:02:21;99372.16;;;1.07;66.92
141;BME280;65;48.778;9.160;2023-04-04T00:05:07;99368.81;;;0.86;67.04
141;BME280;65;48.778;9.160;2023-04-04T00:07:54;99371.38;;;0.92;67.59
141;BME280;65;48.778;9.160;2023-04-04T00:10:39;99362.72;;;0.89;66.83
141;BME280;65;48.778;9.160;2023-04-04T00:13:26;99366.19;;;0.88;66.91
141;BME280;65;48.778;9.160;2023-04-04T00:16:12;99368.81;;;0.83;67.74
141;BME280;65;48.778;9.160;2023-04-04T00:18:57;99365.44;;;0.66;67.83
141;BME280;65;48.778;9.160;2023-04-04T00:21:43;99359.41;;;0.52;69.53
141;BME280;65;48.778;9.160;2023-04-04T00:24:30;99357.66;;;0.54;68.69
141;BME280;65;48.778;9.160;2023-04-04T00:27:16;99358.53;;;0.51;70.00
141;BME280;65;48.778;9.160;2023-04-04T00:30:02;99349.94;;;0.39;70.92
141;BME280;65;48.778;9.160;2023-04-04T00:32:47;99354.31;;;0.29;70.70
141;BME280;65;48.778;9.160;2023-04-04T00:35:33;99352.56;;;0.29;70.80
141;BME280;65;48.778;9.160;2023-04-04T00:38:19;99348.25;;;0.22;72.33
141;BME280;65;48.778;9.160;2023-04-04T00:41:05;99344.75;;;0.31;71.85
141;BME280;65;48.778;9.160;2023-04-04T00:43:51;99343.00;;;0.35;69.83
141;BME280;65;48.778;9.160;2023-04-04T00:46:37;99343.91;;;0.29;71.29
141;BME280;65;48.778;9.160;2023-04-04T00:49:23;99337.78;;;0.41;70.40
141;BME280;65;48.778;9.160;2023-04-04T00:52:08;99336.97;;;0.31;70.98
141;BME280;65;48.778;9.160;2023-04-04T00:54:55;99340.41;;;0.33;70.19
141;BME280;65;48.778;9.160;2023-04-04T00:57:41;99335.25;;;0.28;71.42
141;BME280;65;48.778;9.160;2023-04-04T01:00:27;99334.41;;;0.16;71.44
141;BME280;65;48.778;9.160;2023-04-04T01:03:13;99340.44;;;0.27;70.95
141;BME280;65;48.778;9.160;2023-04-04T01:06:00;99333.50;;;0.30;70.80
141;BME280;65;48.778;9.160;2023-04-04T01:08:46;99330.03;;;0.30;71.58
141;BME280;65;48.778;9.160;2023-04-04T01:11:32;99324.88;;;0.21;71.53
141;BME280;65;48.778;9.160;2023-04-04T01:14:18;99327.47;;;0.19;71.01
141;BME280;65;48.778;9.160;2023-04-04T01:17:04;99326.66;;;0.02;72.03
141;BME280;65;48.778;9.160;2023-04-04T01:20:04;99325.81;;;-0.12;73.12
141;BME280;65;48.778;9.160;2023-04-04T01:22:51;99331.03;;;-0.18;74.22
141;BME280;65;48.778;9.160;2023-04-04T01:25:39;99331.91;;;-0.27;74.67
141;BME280;65;48.778;9.160;2023-04-04T01:28:25;99327.59;;;-0.33;74.75
141;BME280;65;48.778;9.160;2023-04-04T01:31:13;99321.53;;;-0.42;75.40
141;BME280;65;48.778;9.160;2023-04-04T01:40:51;99325.88;;;-0.46;75.24
141;BME280;65;48.778;9.160;2023-04-04T01:43:43;99321.53;;;-0.48;74.05
141;BME280;65;48.778;9.160;2023-04-04T01:46:30;99324.16;;;-0.47;75.63
141;BME280;65;48.778;9.160;2023-04-04T01:49:16;99327.59;;;-0.46;74.67
141;BME280;65;48.778;9.160;2023-04-04T01:52:03;99327.63;;;-0.57;76.00
141;BME280;65;48.778;9.160;2023-04-04T01:54:49;99322.41;;;-0.68;76.04
141;BME280;65;48.778;9.160;2023-04-04T01:57:35;99314.63;;;-0.77;76.77
141;BME280;65;48.778;9.160;2023-04-04T02:00:21;99315.47;;;-0.76;76.93
141;BME280;65;48.778;9.160;2023-04-04T02:03:07;99315.47;;;-0.82;76.98
141;BME280;65;48.778;9.160;2023-04-04T02:05:53;99315.47;;;-0.58;75.76
141;BME280;65;48.778;9.160;2023-04-04T02:08:39;99318.06;;;-0.43;74.32
141;BME280;65;48.778;9.160;2023-04-04T02:11:25;99321.53;;;-0.44;73.83
141;BME280;65;48.778;9.160;2023-04-04T02:14:10;99313.75;;;-0.44;75.62
141;BME280;65;48.778;9.160;2023-04-04T02:16:56;99313.75;;;-0.53;74.65
141;BME280;65;48.778;9.160;2023-04-04T02:19:42;99315.47;;;-0.67;75.23
141;BME280;65;48.778;9.160;2023-04-04T02:22:28;99317.22;;;-0.78;76.37
141;BME280;65;48.778;9.160;2023-04-04T02:25:14;99316.34;;;-0.80;76.70
141;BME280;65;48.778;9.160;2023-04-04T02:27:59;99318.94;;;-0.92;77.26
141;BME280;65;48.778;9.160;2023-04-04T02:30:58;99318.94;;;-0.97;78.41
141;BME280;65;48.778;9.160;2023-04-04T02:33:44;99318.94;;;-1.02;79.19
141;BME280;65;48.778;9.160;2023-04-04T02:36:30;99323.25;;;-1.04;79.16
141;BME280;65;48.778;9.160;2023-04-04T02:39:16;99328.44;;;-1.05;78.83
141;BME280;65;48.778;9.160;2023-04-04T02:42:02;99327.56;;;-1.09;79.50
141;BME280;65;48.778;9.160;2023-04-04T02:44:47;99318.06;;;-1.01;79.88
141;BME280;65;48.778;9.160;2023-04-04T02:47:33;99315.47;;;-1.10;80.39
141;BME280;65;48.778;9.160;2023-04-04T02:50:19;99308.53;;;-1.14;80.05
141;BME280;65;48.778;9.160;2023-04-04T02:53:04;99317.13;;;-1.25;80.75
141;BME280;65;48.778;9.160;2023-04-04T02:55:50;99320.59;;;-1.22;80.65
141;BME280;65;48.778;9.160;2023-04-04T02:58:36;99310.22;;;-1.28;80.48
141;BME280;65;48.778;9.160;2023-04-04T03:01:21;99310.22;;;-1.19;81.21
141;BME280;65;48.778;9.160;2023-04-04T03:04:07;99319.72;;;-1.21;80.90
141;BME280;65;48.778;9.160;2023-04-04T03:06:53;99306.81;;;-1.09;80.32
141;BME280;65;48.778;9.160;2023-04-04T03:09:39;99313.72;;;-1.08;80.59
141;BME280;65;48.778;9.160;2023-04-04T03:12:29;99302.44;;;-1.20;82.07
141;BME280;65;48.778;9.160;2023-04-04T03:15:15;99314.59;;;-1.09;81.94
141;BME280;65;48.778;9.160;2023-04-04T03:18:01;99310.28;;;-1.04;80.84
141;BME280;65;48.778;9.160;2023-04-04T03:20:47;99309.41;;;-1.07;81.51
141;BME280;65;48.778;9.160;2023-04-04T03:23:33;99309.38;;;-1.16;81.15
141;BME280;65;48.778;9.160;2023-04-04T03:26:19;99301.56;;;-1.29;81.69
141;BME280;65;48.778;9.160;2023-04-04T03:29:05;99305.91;;;-1.23;81.37
141;BME280;65;48.778;9.160;2023-04-04T03:31:50;99307.63;;;-1.25;82.38
141;BME280;65;48.778;9.160;2023-04-04T03:34:36;99307.63;;;-1.28;81.43
141;BME280;65;48.778;9.160;2023-04-04T03:37:22;99301.56;;;-1.32;81.87
141;BME280;65;48.778;9.160;2023-04-04T03:40:08;99301.56;;;-1.33;82.11
141;BME280;65;48.778;9.160;2023-04-04T03:42:54;99305.84;;;-1.47;82.44
141;BME280;65;48.778;9.160;2023-04-04T03:45:39;99301.53;;;-1.48;83.30
141;BME280;65;48.778;9.160;2023-04-04T03:48:31;99304.97;;;-1.55;83.89
141;BME280;65;48.778;9.160;2023-04-04T03:51:27;99304.97;;;-1.55;83.40
141;BME280;65;48.778;9.160;2023-04-04T03:54:13;99310.16;;;-1.51;83.92
141;BME280;65;48.778;9.160;2023-04-04T03:56:59;99298.94;;;-1.44;82.92
141;BME280;65;48.778;9.160;2023-04-04T03:59:44;99305.00;;;-1.48;83.05
141;BME280;65;48.778;9.160;2023-04-04T04:02:30;99300.63;;;-1.60;83.10
141;BME280;65;48.778;9.160;2023-04-04T04:05:16;99304.09;;;-1.57;84.41
141;BME280;65;48.778;9.160;2023-04-04T04:08:02;99305.84;;;-1.53;83.01
141;BME280;65;48.778;9.160;2023-04-04T04:10:47;99306.72;;;-1.45;83.93
141;BME280;65;48.778;9.160;2023-04-04T04:13:34;99308.44;;;-1.44;82.83
141;BME280;65;48.778;9.160;2023-04-04T04:16:23;99302.41;;;-1.49;83.34
141;BME280;65;48.778;9.160;2023-04-04T04:19:09;99311.00;;;-1.56;83.79
141;BME280;65;48.778;9.160;2023-04-04T04:21:55;99311.88;;;-1.59;84.29
141;BME280;65;48.778;9.160;2023-04-04T04:24:40;99305.84;;;-1.53;82.49
141;BME280;65;48.778;9.160;2023-04-04T04:27:26;99308.44;;;-1.47;82.24
141;BME280;65;48.778;9.160;2023-04-04T04:30:12;99307.53;;;-1.60;81.85
141;BME280;65;48.778;9.160;2023-04-04T04:32:58;99309.28;;;-1.62;83.21
141;BME280;65;48.778;9.160;2023-04-04T04:35:43;99307.53;;;-1.66;81.85
141;BME280;65;48.778;9.160;2023-04-04T04:38:29;99311.00;;;-1.61;83.26
141;BME280;65;48.778;9.160;2023-04-04T04:41:15;99310.13;;;-1.58;82.39
141;BME280;65;48.778;9.160;2023-04-04T04:44:07;99308.44;;;-1.47;83.42
141;BME280;65;48.778;9.160;2023-04-04T04:46:52;99312.78;;;-1.37;81.23
141;BME280;65;48.778;9.160;2023-04-04T04:49:38;99305.00;;;-1.46;81.88
141;BME280;65;48.778;9.160;2023-04-04T04:52:24;99310.19;;;-1.43;82.33
141;BME280;65;48.778;9.160;2023-04-04T04:55:10;99320.53;;;-1.51;82.58
141;BME280;65;48.778;9.160;2023-04-04T04:57:56;99326.56;;;-1.53;82.88
141;BME280;65;48.778;9.160;2023-04-04T05:00:41;99327.44;;;-1.54;82.78
141;BME280;65;48.778;9.160;2023-04-04T05:03:27;99327.44;;;-1.54;83.88
141;BME280;65;48.778;9.160;2023-04-04T05:06:13;99327.44;;;-1.54;82.43
141;BME280;65;48.778;9.160;2023-04-04T05:08:59;99330.06;;;-1.47;83.00
141;BME280;65;48.778;9.160;2023-04-04T05:11:45;99327.47;;;-1.41;82.65
141;BME280;65;48.778;9.160;2023-04-04T05:14:32;99324.03;;;-1.40;82.78
141;BME280;65;48.778;9.160;2023-04-04T05:17:17;99326.63;;;-1.31;81.97
141;BME280;65;48.778;9.160;2023-04-04T05:20:04;99319.72;;;-1.25;81.86
141;BME280;65;48.778;9.160;2023-04-04T05:22:50;99320.66;;;-1.13;81.54
141;BME280;65;48.778;9.160;2023-04-04T05:25:37;99324.97;;;-1.06;79.57
141;BME280;65;48.778;9.160;2023-04-04T05:28:22;99326.72;;;-0.99;79.56
141;BME280;65;48.778;9.160;2023-04-04T05:31:08;99325.84;;;-0.93;78.91
141;BME280;65;48.778;9.160;2023-04-04T05:33:54;99322.41;;;-0.87;78.06
141;BME280;65;48.778;9.160;2023-04-04T05:36:40;99325.00;;;-0.87;77.95
141;BME280;65;48.778;9.160;2023-04-04T05:39:26;99334.50;;;-0.76;76.98
141;BME280;65;48.778;9.160;2023-04-04T05:42:12;99330.19;;;-0.69;76.70
141;BME280;65;48.778;9.160;2023-04-04T05:44:58;99331.94;;;-0.54;76.17
141;BME280;65;48.778;9.160;2023-04-04T05:47:43;99333.66;;;-0.46;75.87
141;BME280;65;48.778;9.160;2023-04-04T05:50:29;99344.91;;;-0.32;73.40
141;BME280;65;48.778;9.160;2023-04-04T05:53:15;99337.97;;;-0.26;72.53
141;BME280;65;48.778;9.160;2023-04-04T05:56:01;99339.69;;;-0.21;71.84
141;BME280;65;48.778;9.160;2023-04-04T05:59:13;99345.69;;;-0.04;71.45
141;BME280;65;48.778;9.160;2023-04-04T06:01:59;99343.09;;;-0.04;72.55
141;BME280;65;48.778;9.160;2023-04-04T06:04:45;99339.66;;;0.02;70.80
141;BME280;65;48.778;9.160;2023-04-04T06:07:31;99338.75;;;0.14;70.38
141;BME280;65;48.778;9.160;2023-04-04T06:10:17;99330.97;;;0.12;69.10
141;BME280;65;48.778;9.160;2023-04-04T06:13:02;99337.00;;;0.23;68.70
141;BME280;65;48.778;9.160;2023-04-04T06:15:48;99336.09;;;0.32;68.57
141;BME280;65;48.778;9.160;2023-04-04T06:18:34;99335.19;;;0.41;67.19
141;BME280;65;48.778;9.160;2023-04-04T06:21:20;99339.50;;;0.48;67.23
141;BME280;65;48.778;9.160;2023-04-04T06:24:06;99336.00;;;0.49;66.76
141;BME280;65;48.778;9.160;2023-04-04T06:26:51;99335.16;;;0.47;68.23
141;BME280;65;48.778;9.160;2023-04-04T06:29:37;99334.25;;;0.54;68.89
141;BME280;65;48.778;9.160;2023-04-04T06:32:23;99324.69;;;0.65;66.05
141;BME280;65;48.778;9.160;2023-04-04T06:35:09;99334.94;;;0.91;64.92
141;BME280;65;48.778;9.160;2023-04-04T06:37:55;99330.59;;;0.94;65.36
141;BME280;65;48.778;9.160;2023-04-04T06:40:40;99333.16;;;0.99;64.31
141;BME280;65;48.778;9.160;2023-04-04T06:43:26;99328.81;;;1.00;63.58
141;BME280;65;48.778;9.160;2023-04-04T06:46:13;99333.13;;;1.04;65.28
141;BME280;65;48.778;9.160;2023-04-04T06:48:59;99328.72;;;1.13;63.39
141;BME280;65;48.778;9.160;2023-04-04T06:51:44;99333.06;;;1.17;63.49
141;BME280;65;48.778;9.160;2023-04-04T06:54:31;99331.31;;;1.16;63.84
141;BME280;65;48.778;9.160;2023-04-04T06:57:17;99332.16;;;1.23;65.07
141;BME280;65;48.778;9.160;2023-04-04T07:00:04;99328.63;;;1.30;62.82
141;BME280;65;48.778;9.160;2023-04-04T07:02:59;99319.03;;;1.35;63.30
141;BME280;65;48.778;9.160;2023-04-04T07:05:45;99321.50;;;1.50;60.63
141;BME280;65;48.778;9.160;2023-04-04T07:08:31;99321.41;;;1.59;60.52
141;BME280;65;48.778;9.160;2023-04-04T07:11:18;99321.38;;;1.63;59.79
141;BME280;65;48.778;9.160;2023-04-04T07:14:04;99322.28;;;1.60;60.09
141;BME280;65;48.778;9.160;2023-04-04T07:16:50;99317.91;;;1.64;58.62
141;BME280;65;48.778;9.160;2023-04-04T07:19:36;99318.78;;;1.63;58.42
141;BME280;65;48.778;9.160;2023-04-04T07:22:22;99320.44;;;1.70;58.45
141;BME280;65;48.778;9.160;2023-04-04T07:25:08;99323.81;;;1.84;58.29
141;BME280;65;48.778;9.160;2023-04-04T07:27:54;99327.13;;;2.00;57.90
141;BME280;65;48.778;9.160;2023-04-04T07:30:40;99320.91;;;2.11;57.64
141;BME280;65;48.778;9.160;2023-04-04T07:33:26;99319.91;;;2.21;56.87
141;BME280;65;48.778;9.160;2023-04-04T07:36:12;99318.88;;;2.38;55.63
141;BME280;65;48.778;9.160;2023-04-04T07:38:58;99314.34;;;2.52;54.77
141;BME280;65;48.778;9.160;2023-04-04T07:41:44;99316.28;;;2.38;54.97
141;BME280;65;48.778;9.160;2023-04-04T07:44:30;99313.47;;;2.53;55.25
141;BME280;65;48.778;9.160;2023-04-04T07:47:16;99313.25;;;2.68;55.32
141;BME280;65;48.778;9.160;2023-04-04T07:50:03;99312.22;;;2.80;55.38
141;BME280;65;48.778;9.160;2023-04-04T07:52:49;99309.41;;;2.97;54.07
141;BME280;65;48.778;9.160;2023-04-04T07:55:40;99318.00;;;3.03;54.45
141;BME280;65;48.778;9.160;2023-04-04T07:58:25;99309.31;;;3.03;54.93
141;BME280;65;48.778;9.160;2023-04-04T08:01:11;99314.97;;;3.31;53.86
141;BME280;65;48.778;9.160;2023-04-04T08:03:57;99313.00;;;3.43;51.76
141;BME280;65;48.778;9.160;2023-04-04T08:06:43;99307.75;;;3.45;51.44
141;BME280;65;48.778;9.160;2023-04-04T08:09:28;99302.53;;;3.45;51.94
141;BME280;65;48.778;9.160;2023-04-04T08:12:18;99308.47;;;3.56;52.31
141;BME280;65;48.778;9.160;2023-04-04T08:15:04;99305.41;;;3.28;53.21
141;BME280;65;48.778;9.160;2023-04-04T08:17:51;99309.88;;;3.22;52.26
141;BME280;65;48.778;9.160;2023-04-04T08:20:36;99308.00;;;3.30;51.94
141;BME280;65;48.778;9.160;2023-04-04T08:23:22;99307.03;;;3.35;52.11
141;BME280;65;48.778;9.160;2023-04-04T08:26:08;99301.53;;;3.54;51.88
141;BME280;65;48.778;9.160;2023-04-04T08:28:54;99315.38;;;3.59;53.82
141;BME280;65;48.778;9.160;2023-04-04T08:31:39;99308.09;;;3.77;51.62
141;BME280;65;48.778;9.160;2023-04-04T08:34:25;99303.22;;;3.58;53.16
141;BME280;65;48.778;9.160;2023-04-04T08:37:11;99305.22;;;3.91;52.25
141;BME280;65;48.778;9.160;2023-04-04T08:39:57;99304.78;;;4.16;50.66
141;BME280;65;48.778;9.160;2023-04-04T08:42:43;99303.63;;;4.29;51.24
141;BME280;65;48.778;9.160;2023-04-04T08:45:31;99310.69;;;4.25;49.15
141;BME280;65;48.778;9.160;2023-04-04T08:48:19;99299.94;;;4.39;50.49
141;BME280;65;48.778;9.160;2023-04-04T08:51:06;99297.53;;;6.14;46.79
141;BME280;65;48.778;9.160;2023-04-04T08:53:54;99286.22;;;10.08;37.77
141;BME280;65;48.778;9.160;2023-04-04T08:56:40;99291.81;;;10.81;34.72
141;BME280;65;48.778;9.160;2023-04-04T08:59:27;99296.50;;;9.08;37.14
141;BME280;65;48.778;9.160;2023-04-04T09:02:16;99301.28;;;9.86;37.15
141;BME280;65;48.778;9.160;2023-04-04T09:05:05;99293.81;;;12.02;34.31
141;BME280;65;48.778;9.160;2023-04-04T09:07:53;99296.66;;;13.14;31.37
141;BME280;65;48.778;9.160;2023-04-04T09:10:40;99280.16;;;12.27;33.22
141;BME280;65;48.778;9.160;2023-04-04T09:13:28;99297.50;;;9.06;35.00
141;BME280;65;48.778;9.160;2023-04-04T09:16:14;99302.47;;;7.93;39.46
141;BME280;65;48.778;9.160;2023-04-04T09:19:00;99305.34;;;6.77;41.67
141;BME280;65;48.778;9.160;2023-04-04T09:21:46;99297.81;;;6.05;43.10
141;BME280;65;48.778;9.160;2023-04-04T09:24:39;99294.09;;;5.79;44.45
141;BME280;65;48.778;9.160;2023-04-04T09:27:25;99305.22;;;5.87;43.68
141;BME280;65;48.778;9.160;2023-04-04T09:30:11;99294.81;;;5.84;43.73
141;BME280;65;48.778;9.160;2023-04-04T09:33:19;99301.41;;;6.00;43.37
141;BME280;65;48.778;9.160;2023-04-04T09:36:07;99297.44;;;5.84;46.08
141;BME280;65;48.778;9.160;2023-04-04T09:39:20;99307.19;;;5.78;43.76
141;BME280;65;48.778;9.160;2023-04-04T09:42:07;99301.28;;;5.35;43.21
141;BME280;65;48.778;9.160;2023-04-04T09:44:53;99306.00;;;5.20;44.88
141;BME280;65;48.778;9.160;2023-04-04T09:47:39;99299.78;;;5.25;44.18
141;BME280;65;48.778;9.160;2023-04-04T09:50:27;99306.16;;;5.51;41.47
141;BME280;65;48.778;9.160;2023-04-04T09:53:18;99305.19;;;5.55;44.11
141;BME280;65;48.778;9.160;2023-04-04T09:56:04;99311.16;;;4.86;45.15
141;BME280;65;48.778;9.160;2023-04-04T09:58:51;99302.25;;;5.31;44.46
141;BME280;65;48.778;9.160;2023-04-04T10:01:37;99299.00;;;5.22;43.74
141;BME280;65;48.778;9.160;2023-04-04T10:04:24;99304.75;;;5.71;44.29
141;BME280;65;48.778;9.160;2023-04-04T10:07:14;99301.31;;;8.27;39.16
141;BME280;65;48.778;9.160;2023-04-04T10:10:01;99287.81;;;12.16;32.16
141;BME280;65;48.778;9.160;2023-04-04T10:12:51;99294.94;;;12.97;29.58
141;BME280;65;48.778;9.160;2023-04-04T10:15:37;99289.38;;;14.96;26.56
141;BME280;65;48.778;9.160;2023-04-04T10:18:24;99286.66;;;14.83;25.25
141;BME280;65;48.778;9.160;2023-04-04T10:21:11;99275.41;;;14.93;26.95
141;BME280;65;48.778;9.160;2023-04-04T10:23:57;99294.03;;;14.93;26.33
141;BME280;65;48.778;9.160;2023-04-04T10:26:44;99284.94;;;15.38;26.14
141;BME280;65;48.778;9.160;2023-04-04T10:29:30;99283.56;;;16.11;24.66
141;BME280;65;48.778;9.160;2023-04-04T10:32:31;99288.75;;;16.65;24.14
141;BME280;65;48.778;9.160;2023-04-04T10:35:21;99278.94;;;16.40;25.69
141;BME280;65;48.778;9.160;2023-04-04T10:38:08;99264.66;;;17.88;22.28
141;BME280;65;48.778;9.160;2023-04-04T10:40:58;99272.56;;;17.89;23.08
141;BME280;65;48.778;9.160;2023-04-04T10:43:46;99264.66;;;18.23;22.65
141;BME280;65;48.778;9.160;2023-04-04T10:46:33;99265.00;;;15.97;24.79
141;BME280;65;48.778;9.160;2023-04-04T10:49:20;99263.81;;;15.08;26.04
141;BME280;65;48.778;9.160;2023-04-04T10:52:07;99265.00;;;15.58;25.68
141;BME280;65;48.778;9.160;2023-04-04T10:54:56;99262.50;;;16.21;26.90
141;BME280;65;48.778;9.160;2023-04-04T10:57:45;99267.78;;;18.06;21.78
141;BME280;65;48.778;9.160;2023-04-04T11:00:32;99260.03;;;16.69;24.75
141;BME280;65;48.778;9.160;2023-04-04T11:03:17;99265.34;;;17.55;24.05
141;BME280;65;48.778;9.160;2023-04-04T11:06:13;99257.13;;;18.39;21.36
141;BME280;65;48.778;9.160;2023-04-04T11:08:59;99258.69;;;13.29;26.16
141;BME280;65;48.778;9.160;2023-04-04T11:12:08;99247.94;;;16.00;29.57
141;BME280;65;48.778;9.160;2023-04-04T11:23:18;99230.63;;;18.47;22.84
141;BME280;65;48.778;9.160;2023-04-04T11:26:06;99251.44;;;17.38;21.59
141;BME280;65;48.778;9.160;2023-04-04T11:28:57;99236.22;;;18.44;21.19
141;BME280;65;48.778;9.160;2023-04-04T11:31:43;99251.59;;;19.09;21.98
141;BME280;65;48.778;9.160;2023-04-04T11:34:31;99238.38;;;20.25;20.92
141;BME280;65;48.778;9.160;2023-04-04T11:37:17;99236.19;;;19.98;20.37
141;BME280;65;48.778;9.160;2023-04-04T11:40:09;99242.16;;;16.95;24.03
141;BME280;65;48.778;9.160;2023-04-04T11:42:57;99240.66;;;17.03;23.39
141;BME280;65;48.778;9.160;2023-04-04T11:45:47;99231.19;;;16.10;24.15
141;BME280;65;48.778;9.160;2023-04-04T11:48:33;99237.72;;;16.44;24.06
141;BME280;65;48.778;9.160;2023-04-04T11:51:19;99231.91;;;15.47;24.14
141;BME280;65;48.778;9.160;2023-04-04T11:54:12;99230.44;;;17.21;23.33
141;BME280;65;48.778;9.160;2023-04-04T11:56:59;99223.53;;;18.13;21.29
141;BME280;65;48.778;9.160;2023-04-04T11:59:49;99226.19;;;16.69;21.47
141;BME280;65;48.778;9.160;2023-04-04T12:02:35;99214.41;;;15.70;24.87
141;BME280;65;48.778;9.160;2023-04-04T12:05:22;99220.59;;;17.22;23.08
141;BME280;65;48.778;9.160;2023-04-04T12:08:10;99212.75;;;20.00;19.50
141;BME280;65;48.778;9.160;2023-04-04T12:10:56;99218.28;;;18.00;21.04
141;BME280;65;48.778;9.160;2023-04-04T12:13:42;99211.16;;;14.84;26.67
141;BME280;65;48.778;9.160;2023-04-04T12:16:29;99219.66;;;16.61;22.61
141;BME280;65;48.778;9.160;2023-04-04T12:19:16;99212.47;;;14.50;25.33
141;BME280;65;48.778;9.160;2023-04-04T12:22:03;99205.41;;;14.64;27.49
141;BME280;65;48.778;9.160;2023-04-04T12:24:48;99191.81;;;16.52;23.62
141;BME280;65;48.778;9.160;2023-04-04T12:27:35;99200.16;;;15.84;23.48
141;BME280;65;48.778;9.160;2023-04-04T12:30:21;99205.25;;;16.51;23.57
141;BME280;65;48.778;9.160;2023-04-04T12:33:07;99195.53;;;17.35;24.73
141;BME280;65;48.778;9.160;2023-04-04T12:35:53;99204.31;;;18.19;24.83
141;BME280;65;48.778;9.160;2023-04-04T12:38:55;99196.94;;;17.87;21.77
141;BME280;65;48.778;9.160;2023-04-04T12:42:02;99193.63;;;19.08;20.90
141;BME280;65;48.778;9.160;2023-04-04T12:44:49;99187.06;;;18.56;21.13
141;BME280;65;48.778;9.160;2023-04-04T12:47:36;99188.69;;;16.84;22.87
141;BME280;65;48.778;9.160;2023-04-04T12:50:23;99181.88;;;17.86;22.37
141;BME280;65;48.778;9.160;2023-04-04T12:53:10;99192.44;;;16.81;23.45
141;BME280;65;48.778;9.160;2023-04-04T12:56:04;99177.03;;;16.23;28.41
141;BME280;65;48.778;9.160;2023-04-04T12:58:49;99182.19;;;16.62;28.31
141;BME280;65;48.778;9.160;2023-04-04T13:01:36;99172.00;;;16.93;25.41
141;BME280;65;48.778;9.160;2023-04-04T13:04:22;99180.97;;;16.30;25.01
141;BME280;65;48.778;9.160;2023-04-04T13:07:23;99165.81;;;16.30;24.47
141;BME280;65;48.778;9.160;2023-04-04T13:10:12;99172.97;;;15.79;26.02
141;BME280;65;48.778;9.160;2023-04-04T13:13:01;99161.94;;;17.20;23.74
141;BME280;65;48.778;9.160;2023-04-04T13:15:49;99162.78;;;16.48;24.27
141;BME280;65;48.778;9.160;2023-04-04T13:18:38;99161.78;;;12.75;27.11
141;BME280;65;48.778;9.160;2023-04-04T13:21:27;99160.81;;;13.68;27.61
141;BME280;65;48.778;9.160;2023-04-04T13:24:13;99159.00;;;13.68;27.98
141;BME280;65;48.778;9.160;2023-04-04T13:26:58;99160.97;;;13.50;27.33
141;BME280;65;48.778;9.160;2023-04-04T13:29:44;99153.63;;;12.94;29.76
141;BME280;65;48.778;9.160;2023-04-04T13:32:30;99149.38;;;13.37;28.29
141;BME280;65;48.778;9.160;2023-04-04T13:35:15;99149.19;;;12.79;29.13
141;BME280;65;48.778;9.160;2023-04-04T13:38:01;99140.91;;;13.31;28.74
141;BME280;65;48.778;9.160;2023-04-04T13:40:47;99144.09;;;13.06;30.90
141;BME280;65;48.778;9.160;2023-04-04T13:43:33;99131.53;;;12.93;28.11
141;BME280;65;48.778;9.160;2023-04-04T13:46:19;99134.16;;;13.09;27.72
141;BME280;65;48.778;9.160;2023-04-04T13:49:04;99124.75;;;13.04;28.96
141;BME280;65;48.778;9.160;2023-04-04T13:51:50;99126.28;;;13.82;28.54
141;BME280;65;48.778;9.160;2023-04-04T13:54:36;99122.34;;;13.31;28.19
141;BME280;65;48.778;9.160;2023-04-04T13:57:21;99124.28;;;13.57;28.62
141;BME280;65;48.778;9.160;2023-04-04T14:00:08;99124.19;;;13.73;27.94
141;BME280;65;48.778;9.160;2023-04-04T14:02:54;99122.81;;;13.37;27.66
141;BME280;65;48.778;9.160;2023-04-04T14:05:41;99128.03;;;12.14;28.79
141;BME280;65;48.778;9.160;2023-04-04T14:08:28;99119.09;;;11.32;30.75
141;BME280;65;48.778;9.160;2023-04-04T14:11:15;99119.72;;;12.04;30.06
141;BME280;65;48.778;9.160;2023-04-04T14:14:00;99130.53;;;12.33;30.64
141;BME280;65;48.778;9.160;2023-04-04T14:16:46;99111.78;;;13.29;30.51
141;BME280;65;48.778;9.160;2023-04-04T14:19:32;99103.84;;;13.13;30.35
141;BME280;65;48.778;9.160;2023-04-04T14:22:18;99099.63;;;13.25;32.55
141;BME280;65;48.778;9.160;2023-04-04T14:25:04;99095.25;;;12.94;28.85
141;BME280;65;48.778;9.160;2023-04-04T14:27:49;99112.66;;;12.84;30.15
141;BME280;65;48.778;9.160;2023-04-04T14:30:35;99114.09;;;12.89;27.71
141;BME280;65;48.778;9.160;2023-04-04T14:33:21;99112.84;;;12.18;29.00
141;BME280;65;48.778;9.160;2023-04-04T14:36:07;99112.06;;;12.31;29.60
141;BME280;65;48.778;9.160;2023-04-04T14:38:52;99116.69;;;12.44;29.17
141;BME280;65;48.778;9.160;2023-04-04T14:41:39;99115.41;;;12.35;31.22
141;BME280;65;48.778;9.160;2023-04-04T14:44:25;99106.22;;;12.88;29.17
141;BME280;65;48.778;9.160;2023-04-04T14:47:11;99108.75;;;13.05;31.49
141;BME280;65;48.778;9.160;2023-04-04T14:49:56;99099.88;;;13.50;28.06
141;BME280;65;48.778;9.160;2023-04-04T14:52:43;99102.47;;;13.06;29.21
141;BME280;65;48.778;9.160;2023-04-04T14:55:29;99098.38;;;12.55;28.99
141;BME280;65;48.778;9.160;2023-04-04T14:58:14;99100.09;;;11.41;30.86
141;BME280;65;48.778;9.160;2023-04-04T15:01:01;99096.97;;;11.50;31.40
141;BME280;65;48.778;9.160;2023-04-04T15:03:48;99103.53;;;11.43;30.82
141;BME280;65;48.778;9.160;2023-04-04T15:06:34;99100.44;;;11.18;31.66
141;BME280;65;48.778;9.160;2023-04-04T15:09:22;99099.66;;;11.33;30.54
141;BME280;65;48.778;9.160;2023-04-04T15:12:08;99104.75;;;10.84;31.91
141;BME280;65;48.778;9.160;2023-04-04T15:14:53;99098.50;;;11.04;31.23
141;BME280;65;48.778;9.160;2023-04-04T15:17:40;99096.69;;;11.56;29.96
141;BME280;65;48.778;9.160;2023-04-04T15:20:26;99083.56;;;11.20;31.66
141;BME280;65;48.778;9.160;2023-04-04T15:23:11;99092.66;;;11.15;32.72
141;BME280;65;48.778;9.160;2023-04-04T15:25:57;99082.84;;;11.17;31.24
141;BME280;65;48.778;9.160;2023-04-04T15:28:43;99093.09;;;10.71;33.19
141;BME280;65;48.778;9.160;2023-04-04T15:31:29;99097.22;;;10.40;34.65
141;BME280;65;48.778;9.160;2023-04-04T15:34:15;99093.84;;;10.37;33.60
141;BME280;65;48.778;9.160;2023-04-04T15:37:01;99091.34;;;10.34;32.63
141;BME280;65;48.778;9.160;2023-04-04T15:39:48;99092.91;;;10.00;34.37
141;BME280;65;48.778;9.160;2023-04-04T15:42:34;99093.06;;;9.58;34.74
141;BME280;65;48.778;9.160;2023-04-04T15:45:20;99088.50;;;8.80;37.73
141;BME280;65;48.778;9.160;2023-04-04T15:48:05;99088.25;;;9.07;36.61
141;BME280;65;48.778;9.160;2023-04-04T15:50:57;99098.88;;;9.05;36.77
141;BME280;65;48.778;9.160;2023-04-04T15:53:43;99090.56;;;8.94;37.85
141;BME280;65;48.778;9.160;2023-04-04T15:59:32;99081.47;;;8.81;38.05
141;BME280;65;48.778;9.160;2023-04-04T16:02:18;99082.91;;;8.68;37.86
141;BME280;65;48.778;9.160;2023-04-04T16:05:04;99088.13;;;8.24;40.21
141;BME280;65;48.778;9.160;2023-04-04T16:07:51;99092.00;;;8.37;37.81
141;BME280;65;48.778;9.160;2023-04-04T16:10:36;99091.00;;;8.18;38.28
141;BME280;65;48.778;9.160;2023-04-04T16:13:22;99086.94;;;8.09;39.25